EKRK/RKE METAR and TAF weather

Enter ICAO airport designator
Station Type Date Time Source
EKRK METAR 2021/10/22 18:50 UTC NOAA

EKRK 221850Z AUTO 28018KT 9999 OVC030/// 08/03 Q1004


Station Type Date Time Source
EKRK Decoded METAR 2021/10/22 18:50 UTC NOAA

Koebenhavn / Roskilde, Denmark (EKRK) 55-35N 012-08E 44M
Oct 22, 2021 - 02:50 PM EDT / 2021.10.22 1850 UTC
Wind: from the W (280 degrees) at 21 MPH (18 KT):0
Visibility: greater than 7 mile(s):0
Sky conditions: overcast
Temperature: 46 F (8 C)
Dew Point: 37 F (3 C)
Relative Humidity: 70%
Pressure (altimeter): 29.65 in. Hg (1004 hPa)
ob: EKRK 221850Z AUTO 28018KT 9999 OVC030/// 08/03 Q1004
cycle: 19

Station Type Date Time Source
EKRK TAF 2020/10/13 06:33 UTC NOAA

TAF EKRK 130526Z 1306/1415 09004KT 0200 FG VV001
TEMPO 1306/1307 6000 NSW NSC
BECMG 1307/1309 9999 NSW FEW020

Example: see airport list